sensor_id;sensor_type;location;lat;lon;timestamp;pressure;altitude;pressure_sealevel;temperature;humidity
18813;BME280;9534;51.140;6.296;2023-04-12T00:03:45;99684.47;;;9.75;100.00
18813;BME280;9534;51.140;6.296;2023-04-12T00:07:51;99672.13;;;9.73;100.00
18813;BME280;9534;51.140;6.296;2023-04-12T00:11:56;99659.44;;;9.60;100.00
18813;BME280;9534;51.140;6.296;2023-04-12T00:15:59;99653.66;;;9.50;100.00
18813;BME280;9534;51.140;6.296;2023-04-12T00:20:05;99630.31;;;9.36;100.00
18813;BME280;9534;51.140;6.296;2023-04-12T00:24:12;99627.72;;;9.23;100.00
18813;BME280;9534;51.140;6.296;2023-04-12T00:28:15;99611.47;;;9.10;100.00
18813;BME280;9534;51.140;6.296;2023-04-12T00:32:18;99617.22;;;9.02;100.00
18813;BME280;9534;51.140;6.296;2023-04-12T00:36:23;99602.06;;;9.06;100.00
18813;BME280;9534;51.140;6.296;2023-04-12T00:40:27;99596.69;;;9.00;100.00
18813;BME280;9534;51.140;6.296;2023-04-12T00:44:31;99590.06;;;8.89;100.00
18813;BME280;9534;51.140;6.296;2023-04-12T00:48:35;99579.22;;;8.83;100.00
18813;BME280;9534;51.140;6.296;2023-04-12T00:52:40;99576.19;;;8.73;100.00
18813;BME280;9534;51.140;6.296;2023-04-12T00:56:44;99563.44;;;8.67;100.00
18813;BME280;9534;51.140;6.296;2023-04-12T01:00:48;99570.59;;;8.61;100.00
18813;BME280;9534;51.140;6.296;2023-04-12T01:04:53;99563.88;;;8.64;100.00
18813;BME280;9534;51.140;6.296;2023-04-12T01:09:09;99543.34;;;8.61;100.00
18813;BME280;9534;51.140;6.296;2023-04-12T01:13:26;99541.66;;;8.60;100.00
18813;BME280;9534;51.140;6.296;2023-04-12T01:17:37;99518.22;;;8.60;100.00
18813;BME280;9534;51.140;6.296;2023-04-12T01:22:00;99512.34;;;8.56;100.00
18813;BME280;9534;51.140;6.296;2023-04-12T01:26:16;99489.13;;;8.54;100.00
18813;BME280;9534;51.140;6.296;2023-04-12T01:30:27;99493.50;;;8.55;100.00
18813;BME280;9534;51.140;6.296;2023-04-12T01:34:32;99487.66;;;8.51;100.00
18813;BME280;9534;51.140;6.296;2023-04-12T01:38:37;99471.53;;;8.50;100.00
18813;BME280;9534;51.140;6.296;2023-04-12T01:42:41;99455.19;;;8.50;100.00
18813;BME280;9534;51.140;6.296;2023-04-12T01:46:46;99438.22;;;8.48;100.00
18813;BME280;9534;51.140;6.296;2023-04-12T01:50:57;99429.88;;;8.43;100.00
18813;BME280;9534;51.140;6.296;2023-04-12T01:55:04;99426.09;;;8.44;100.00
18813;BME280;9534;51.140;6.296;2023-04-12T01:59:09;99416.47;;;8.41;100.00
18813;BME280;9534;51.140;6.296;2023-04-12T02:03:18;99412.69;;;8.42;100.00
18813;BME280;9534;51.140;6.296;2023-04-12T02:07:22;99400.97;;;8.42;100.00
18813;BME280;9534;51.140;6.296;2023-04-12T02:11:25;99385.06;;;8.39;100.00
18813;BME280;9534;51.140;6.296;2023-04-12T02:15:28;99382.47;;;8.44;100.00
18813;BME280;9534;51.140;6.296;2023-04-12T02:19:34;99371.59;;;8.44;100.00
18813;BME280;9534;51.140;6.296;2023-04-12T02:23:38;99360.69;;;8.44;100.00
18813;BME280;9534;51.140;6.296;2023-04-12T02:27:42;99347.66;;;8.46;100.00
18813;BME280;9534;51.140;6.296;2023-04-12T02:31:45;99335.53;;;8.42;100.00
18813;BME280;9534;51.140;6.296;2023-04-12T02:35:51;99332.41;;;8.38;100.00
18813;BME280;9534;51.140;6.296;2023-04-12T02:39:54;99331.91;;;8.30;100.00
18813;BME280;9534;51.140;6.296;2023-04-12T02:44:00;99309.66;;;8.26;100.00
18813;BME280;9534;51.140;6.296;2023-04-12T02:48:04;99296.03;;;8.26;100.00
18813;BME280;9534;51.140;6.296;2023-04-12T02:52:09;99284.78;;;8.23;100.00
18813;BME280;9534;51.140;6.296;2023-04-12T02:56:22;99277.66;;;8.22;100.00
18813;BME280;9534;51.140;6.296;2023-04-12T03:00:34;99259.66;;;8.21;100.00
18813;BME280;9534;51.140;6.296;2023-04-12T03:04:37;99242.25;;;8.22;100.00
18813;BME280;9534;51.140;6.296;2023-04-12T03:08:48;99233.47;;;8.20;100.00
18813;BME280;9534;51.140;6.296;2023-04-12T03:12:51;99216.88;;;8.21;100.00
18813;BME280;9534;51.140;6.296;2023-04-12T03:16:54;99205.53;;;8.24;100.00
18813;BME280;9534;51.140;6.296;2023-04-12T03:20:58;99197.78;;;8.28;100.00
18813;BME280;9534;51.140;6.296;2023-04-12T03:25:06;99190.19;;;8.30;100.00
18813;BME280;9534;51.140;6.296;2023-04-12T03:29:15;99182.63;;;8.32;100.00
18813;BME280;9534;51.140;6.296;2023-04-12T03:33:23;99168.06;;;8.38;100.00
18813;BME280;9534;51.140;6.296;2023-04-12T03:37:31;99153.97;;;8.41;100.00
18813;BME280;9534;51.140;6.296;2023-04-12T03:41:36;99148.06;;;8.44;100.00
18813;BME280;9534;51.140;6.296;2023-04-12T03:45:39;99129.13;;;8.49;100.00
18813;BME280;9534;51.140;6.296;2023-04-12T03:49:42;99114.03;;;8.46;100.00
18813;BME280;9534;51.140;6.296;2023-04-12T03:53:58;99109.91;;;8.44;100.00
18813;BME280;9534;51.140;6.296;2023-04-12T03:58:10;99109.16;;;8.37;100.00
18813;BME280;9534;51.140;6.296;2023-04-12T04:02:17;99101.94;;;8.31;100.00
18813;BME280;9534;51.140;6.296;2023-04-12T04:06:23;99104.28;;;8.27;100.00
18813;BME280;9534;51.140;6.296;2023-04-12T04:10:29;99095.47;;;8.25;100.00
18813;BME280;9534;51.140;6.296;2023-04-12T04:14:34;99095.13;;;8.22;100.00
18813;BME280;9534;51.140;6.296;2023-04-12T04:18:39;99092.25;;;8.17;100.00
18813;BME280;9534;51.140;6.296;2023-04-12T04:22:45;99083.94;;;8.12;100.00
18813;BME280;9534;51.140;6.296;2023-04-12T04:26:50;99083.34;;;8.10;100.00
18813;BME280;9534;51.140;6.296;2023-04-12T04:31:00;99085.47;;;8.08;100.00
18813;BME280;9534;51.140;6.296;2023-04-12T04:35:09;99083.22;;;8.05;100.00
18813;BME280;9534;51.140;6.296;2023-04-12T04:39:24;99071.13;;;8.01;100.00
18813;BME280;9534;51.140;6.296;2023-04-12T04:43:30;99068.03;;;7.97;100.00
18813;BME280;9534;51.140;6.296;2023-04-12T04:47:37;99070.97;;;7.96;100.00
18813;BME280;9534;51.140;6.296;2023-04-12T04:51:41;99068.72;;;7.93;100.00
18813;BME280;9534;51.140;6.296;2023-04-12T04:55:45;99071.44;;;7.93;100.00
18813;BME280;9534;51.140;6.296;2023-04-12T04:59:50;99059.94;;;7.91;100.00
18813;BME280;9534;51.140;6.296;2023-04-12T05:03:54;99059.34;;;7.89;100.00
18813;BME280;9534;51.140;6.296;2023-04-12T05:08:01;99052.84;;;7.90;100.00
18813;BME280;9534;51.140;6.296;2023-04-12T05:12:06;99041.94;;;7.90;100.00
18813;BME280;9534;51.140;6.296;2023-04-12T05:16:10;99045.72;;;7.89;100.00
18813;BME280;9534;51.140;6.296;2023-04-12T05:20:15;99036.50;;;7.90;100.00
18813;BME280;9534;51.140;6.296;2023-04-12T05:24:19;99046.19;;;7.86;100.00
18813;BME280;9534;51.140;6.296;2023-04-12T05:28:22;99044.66;;;7.90;100.00
18813;BME280;9534;51.140;6.296;2023-04-12T05:32:26;99030.59;;;7.93;100.00
18813;BME280;9534;51.140;6.296;2023-04-12T05:36:31;99027.66;;;7.94;100.00
18813;BME280;9534;51.140;6.296;2023-04-12T05:40:37;99017.56;;;7.95;100.00
18813;BME280;9534;51.140;6.296;2023-04-12T05:44:42;99021.13;;;7.95;100.00
18813;BME280;9534;51.140;6.296;2023-04-12T05:48:50;99008.94;;;7.98;100.00
18813;BME280;9534;51.140;6.296;2023-04-12T05:52:55;99005.75;;;8.01;100.00
18813;BME280;9534;51.140;6.296;2023-04-12T05:57:02;99007.19;;;8.03;100.00
18813;BME280;9534;51.140;6.296;2023-04-12T06:01:07;99000.44;;;8.06;100.00
18813;BME280;9534;51.140;6.296;2023-04-12T06:05:13;99007.06;;;8.10;100.00
18813;BME280;9534;51.140;6.296;2023-04-12T06:09:19;98996.78;;;8.12;100.00
18813;BME280;9534;51.140;6.296;2023-04-12T06:13:23;98988.47;;;8.18;100.00
18813;BME280;9534;51.140;6.296;2023-04-12T06:17:26;98989.81;;;8.27;100.00
18813;BME280;9534;51.140;6.296;2023-04-12T06:21:30;98983.91;;;8.30;100.00
18813;BME280;9534;51.140;6.296;2023-04-12T06:25:35;98977.63;;;8.30;100.00
18813;BME280;9534;51.140;6.296;2023-04-12T06:29:39;98970.88;;;8.32;100.00
18813;BME280;9534;51.140;6.296;2023-04-12T06:33:43;98958.22;;;8.38;100.00
18813;BME280;9534;51.140;6.296;2023-04-12T06:37:46;98958.22;;;8.38;100.00
18813;BME280;9534;51.140;6.296;2023-04-12T06:41:50;98952.63;;;8.44;100.00
18813;BME280;9534;51.140;6.296;2023-04-12T06:45:54;98942.31;;;8.46;100.00
18813;BME280;9534;51.140;6.296;2023-04-12T06:49:59;98942.44;;;8.51;100.00
18813;BME280;9534;51.140;6.296;2023-04-12T06:54:02;98945.06;;;8.58;100.00
18813;BME280;9534;51.140;6.296;2023-04-12T06:58:06;98930.38;;;8.59;100.00
18813;BME280;9534;51.140;6.296;2023-04-12T07:02:09;98923.44;;;8.67;100.00
18813;BME280;9534;51.140;6.296;2023-04-12T07:06:13;98915.25;;;8.67;100.00
18813;BME280;9534;51.140;6.296;2023-04-12T07:10:26;98914.78;;;8.70;100.00
18813;BME280;9534;51.140;6.296;2023-04-12T07:14:30;98910.03;;;8.77;100.00
18813;BME280;9534;51.140;6.296;2023-04-12T07:18:33;98904.94;;;8.81;100.00
18813;BME280;9534;51.140;6.296;2023-04-12T07:22:36;98896.50;;;8.82;100.00
18813;BME280;9534;51.140;6.296;2023-04-12T07:26:40;98898.16;;;8.83;100.00
18813;BME280;9534;51.140;6.296;2023-04-12T07:30:44;98895.22;;;8.85;100.00
18813;BME280;9534;51.140;6.296;2023-04-12T07:34:47;98896.59;;;8.99;100.00
18813;BME280;9534;51.140;6.296;2023-04-12T07:38:51;98894.44;;;9.01;100.00
18813;BME280;9534;51.140;6.296;2023-04-12T07:42:57;98895.97;;;9.08;100.00
18813;BME280;9534;51.140;6.296;2023-04-12T07:47:01;98889.31;;;9.04;100.00
18813;BME280;9534;51.140;6.296;2023-04-12T07:51:04;98883.75;;;8.99;100.00
18813;BME280;9534;51.140;6.296;2023-04-12T07:55:08;98888.94;;;9.12;100.00
18813;BME280;9534;51.140;6.296;2023-04-12T07:59:11;98887.78;;;9.08;100.00
18813;BME280;9534;51.140;6.296;2023-04-12T08:03:17;98882.41;;;9.13;100.00
18813;BME280;9534;51.140;6.296;2023-04-12T08:07:20;98877.25;;;9.28;100.00
18813;BME280;9534;51.140;6.296;2023-04-12T08:11:24;98878.31;;;9.27;100.00
18813;BME280;9534;51.140;6.296;2023-04-12T08:15:27;98881.06;;;9.27;100.00
18813;BME280;9534;51.140;6.296;2023-04-12T08:19:32;98880.66;;;9.35;100.00
18813;BME280;9534;51.140;6.296;2023-04-12T08:23:35;98875.69;;;9.32;100.00
18813;BME280;9534;51.140;6.296;2023-04-12T08:27:41;98884.00;;;9.26;100.00
18813;BME280;9534;51.140;6.296;2023-04-12T08:31:44;98885.44;;;9.28;100.00
18813;BME280;9534;51.140;6.296;2023-04-12T08:35:49;98894.59;;;9.22;100.00
18813;BME280;9534;51.140;6.296;2023-04-12T08:39:53;98893.63;;;9.28;100.00
18813;BME280;9534;51.140;6.296;2023-04-12T08:43:57;98898.69;;;9.36;100.00
18813;BME280;9534;51.140;6.296;2023-04-12T08:48:01;98900.88;;;9.51;100.00
18813;BME280;9534;51.140;6.296;2023-04-12T08:52:07;98901.88;;;9.61;100.00
18813;BME280;9534;51.140;6.296;2023-04-12T08:56:12;98900.56;;;9.80;100.00
18813;BME280;9534;51.140;6.296;2023-04-12T09:00:16;98897.94;;;9.85;100.00
18813;BME280;9534;51.140;6.296;2023-04-12T09:04:20;98881.22;;;9.98;100.00
18813;BME280;9534;51.140;6.296;2023-04-12T09:08:25;98880.91;;;10.11;100.00
18813;BME280;9534;51.140;6.296;2023-04-12T09:12:28;98884.03;;;10.03;100.00
18813;BME280;9534;51.140;6.296;2023-04-12T09:16:35;98880.78;;;10.06;100.00
18813;BME280;9534;51.140;6.296;2023-04-12T09:20:39;98884.50;;;10.49;100.00
18813;BME280;9534;51.140;6.296;2023-04-12T09:24:47;98893.41;;;10.83;100.00
18813;BME280;9534;51.140;6.296;2023-04-12T09:28:51;98875.66;;;11.07;100.00
18813;BME280;9534;51.140;6.296;2023-04-12T09:32:54;98856.34;;;11.18;100.00
18813;BME280;9534;51.140;6.296;2023-04-12T09:36:58;98842.72;;;11.49;100.00
18813;BME280;9534;51.140;6.296;2023-04-12T09:41:16;98831.28;;;11.84;100.00
18813;BME280;9534;51.140;6.296;2023-04-12T09:45:25;98793.38;;;12.12;100.00
18813;BME280;9534;51.140;6.296;2023-04-12T09:49:35;98766.34;;;11.58;100.00
18813;BME280;9534;51.140;6.296;2023-04-12T09:53:41;98749.59;;;11.49;100.00
18813;BME280;9534;51.140;6.296;2023-04-12T09:57:50;98751.09;;;11.04;100.00
18813;BME280;9534;51.140;6.296;2023-04-12T10:01:53;98756.63;;;10.83;100.00
18813;BME280;9534;51.140;6.296;2023-04-12T10:05:57;98763.59;;;10.95;100.00
18813;BME280;9534;51.140;6.296;2023-04-12T10:10:01;98774.63;;;10.79;100.00
18813;BME280;9534;51.140;6.296;2023-04-12T10:14:07;98773.94;;;11.19;100.00
18813;BME280;9534;51.140;6.296;2023-04-12T10:18:13;98770.41;;;10.93;100.00
18813;BME280;9534;51.140;6.296;2023-04-12T10:22:16;98761.50;;;11.33;100.00
18813;BME280;9534;51.140;6.296;2023-04-12T10:26:20;98775.03;;;11.45;100.00
18813;BME280;9534;51.140;6.296;2023-04-12T10:30:26;98774.00;;;11.51;100.00
18813;BME280;9534;51.140;6.296;2023-04-12T10:34:30;98759.91;;;12.10;100.00
18813;BME280;9534;51.140;6.296;2023-04-12T10:38:44;98748.47;;;12.23;100.00
18813;BME280;9534;51.140;6.296;2023-04-12T10:42:47;98748.97;;;12.76;100.00
18813;BME280;9534;51.140;6.296;2023-04-12T10:46:52;98760.91;;;13.71;100.00
18813;BME280;9534;51.140;6.296;2023-04-12T10:51:15;98763.69;;;13.42;100.00
18813;BME280;9534;51.140;6.296;2023-04-12T10:55:27;98776.88;;;13.35;100.00
18813;BME280;9534;51.140;6.296;2023-04-12T10:59:52;98772.72;;;13.32;100.00
18813;BME280;9534;51.140;6.296;2023-04-12T11:04:20;98769.69;;;14.13;100.00
18813;BME280;9534;51.140;6.296;2023-04-12T11:08:47;98784.31;;;13.89;100.00
18813;BME280;9534;51.140;6.296;2023-04-12T11:13:04;98785.38;;;13.43;100.00
18813;BME280;9534;51.140;6.296;2023-04-12T11:17:20;98786.72;;;13.16;100.00
18813;BME280;9534;51.140;6.296;2023-04-12T11:21:26;98768.50;;;12.85;100.00
18813;BME280;9534;51.140;6.296;2023-04-12T11:25:30;98758.50;;;12.54;100.00
18813;BME280;9534;51.140;6.296;2023-04-12T11:29:33;98764.81;;;12.08;100.00
18813;BME280;9534;51.140;6.296;2023-04-12T11:33:38;98760.88;;;12.31;100.00
18813;BME280;9534;51.140;6.296;2023-04-12T11:37:43;98758.03;;;12.87;100.00
18813;BME280;9534;51.140;6.296;2023-04-12T11:41:47;98753.22;;;13.34;100.00
18813;BME280;9534;51.140;6.296;2023-04-12T11:45:55;98752.09;;;13.94;100.00
18813;BME280;9534;51.140;6.296;2023-04-12T11:49:59;98768.59;;;13.94;100.00
18813;BME280;9534;51.140;6.296;2023-04-12T11:54:03;98758.09;;;14.36;100.00
18813;BME280;9534;51.140;6.296;2023-04-12T11:58:06;98772.47;;;13.88;100.00
18813;BME280;9534;51.140;6.296;2023-04-12T12:02:10;98769.19;;;13.66;100.00
18813;BME280;9534;51.140;6.296;2023-04-12T12:06:25;98767.47;;;13.11;100.00
18813;BME280;9534;51.140;6.296;2023-04-12T12:10:30;98769.06;;;12.97;100.00
18813;BME280;9534;51.140;6.296;2023-04-12T12:14:39;98767.38;;;12.86;100.00
18813;BME280;9534;51.140;6.296;2023-04-12T12:18:43;98763.28;;;12.93;100.00
18813;BME280;9534;51.140;6.296;2023-04-12T12:22:47;98762.31;;;13.69;100.00
18813;BME280;9534;51.140;6.296;2023-04-12T12:26:52;98758.44;;;14.10;100.00
18813;BME280;9534;51.140;6.296;2023-04-12T12:30:56;98761.97;;;14.35;100.00
18813;BME280;9534;51.140;6.296;2023-04-12T12:35:00;98755.06;;;15.01;100.00
18813;BME280;9534;51.140;6.296;2023-04-12T12:39:05;98763.63;;;14.16;100.00
18813;BME280;9534;51.140;6.296;2023-04-12T12:43:17;98761.75;;;13.62;100.00
18813;BME280;9534;51.140;6.296;2023-04-12T12:47:21;98769.03;;;12.87;100.00
18813;BME280;9534;51.140;6.296;2023-04-12T12:51:25;98761.75;;;12.46;100.00
18813;BME280;9534;51.140;6.296;2023-04-12T12:55:29;98757.19;;;12.15;100.00
18813;BME280;9534;51.140;6.296;2023-04-12T12:59:34;98746.28;;;12.25;100.00
18813;BME280;9534;51.140;6.296;2023-04-12T13:03:37;98743.25;;;12.98;100.00
18813;BME280;9534;51.140;6.296;2023-04-12T13:07:40;98748.72;;;14.47;100.00
18813;BME280;9534;51.140;6.296;2023-04-12T13:11:44;98752.31;;;15.01;100.00
18813;BME280;9534;51.140;6.296;2023-04-12T13:15:49;98751.56;;;13.92;100.00
18813;BME280;9534;51.140;6.296;2023-04-12T13:19:53;98772.41;;;12.33;100.00
18813;BME280;9534;51.140;6.296;2023-04-12T13:23:56;98829.25;;;10.31;100.00
18813;BME280;9534;51.140;6.296;2023-04-12T13:27:59;98821.22;;;9.09;100.00
18813;BME280;9534;51.140;6.296;2023-04-12T13:32:05;98837.09;;;9.12;100.00
18813;BME280;9534;51.140;6.296;2023-04-12T13:36:08;98856.91;;;9.52;100.00
18813;BME280;9534;51.140;6.296;2023-04-12T13:40:12;98877.59;;;10.85;100.00
18813;BME280;9534;51.140;6.296;2023-04-12T13:44:15;98855.69;;;10.85;100.00
18813;BME280;9534;51.140;6.296;2023-04-12T13:48:20;98850.13;;;11.01;100.00
18813;BME280;9534;51.140;6.296;2023-04-12T13:52:24;98840.81;;;10.76;100.00
18813;BME280;9534;51.140;6.296;2023-04-12T13:56:27;98842.25;;;11.05;100.00
18813;BME280;9534;51.140;6.296;2023-04-12T14:00:31;98825.50;;;11.80;100.00
18813;BME280;9534;51.140;6.296;2023-04-12T14:04:49;98795.53;;;14.42;100.00
18813;BME280;9534;51.140;6.296;2023-04-12T14:08:52;98782.88;;;14.11;100.00
18813;BME280;9534;51.140;6.296;2023-04-12T14:12:55;98795.69;;;12.91;100.00
18813;BME280;9534;51.140;6.296;2023-04-12T14:16:58;98781.69;;;12.98;100.00
18813;BME280;9534;51.140;6.296;2023-04-12T14:21:04;98782.09;;;13.81;100.00
18813;BME280;9534;51.140;6.296;2023-04-12T14:25:09;98816.78;;;12.76;100.00
18813;BME280;9534;51.140;6.296;2023-04-12T14:29:12;98808.91;;;11.08;100.00
18813;BME280;9534;51.140;6.296;2023-04-12T14:33:16;98822.56;;;11.60;100.00
18813;BME280;9534;51.140;6.296;2023-04-12T14:37:21;98828.91;;;11.13;100.00
18813;BME280;9534;51.140;6.296;2023-04-12T14:41:24;98835.81;;;12.05;100.00
18813;BME280;9534;51.140;6.296;2023-04-12T14:45:27;98837.16;;;10.49;100.00
18813;BME280;9534;51.140;6.296;2023-04-12T14:49:30;98822.09;;;9.92;100.00
18813;BME280;9534;51.140;6.296;2023-04-12T14:53:35;98829.66;;;10.82;100.00
18813;BME280;9534;51.140;6.296;2023-04-12T14:57:38;98782.06;;;13.21;100.00
18813;BME280;9534;51.140;6.296;2023-04-12T15:01:42;98797.16;;;14.43;100.00
18813;BME280;9534;51.140;6.296;2023-04-12T15:05:45;98814.72;;;14.57;100.00
18813;BME280;9534;51.140;6.296;2023-04-12T15:09:50;98823.81;;;14.53;100.00
18813;BME280;9534;51.140;6.296;2023-04-12T15:13:53;98847.25;;;14.10;100.00
18813;BME280;9534;51.140;6.296;2023-04-12T15:17:57;98827.75;;;13.97;100.00
18813;BME280;9534;51.140;6.296;2023-04-12T15:22:00;98831.00;;;13.54;100.00
18813;BME280;9534;51.140;6.296;2023-04-12T15:26:05;98843.66;;;12.74;100.00
18813;BME280;9534;51.140;6.296;2023-04-12T15:30:10;98853.56;;;11.39;100.00
18813;BME280;9534;51.140;6.296;2023-04-12T15:34:16;98868.66;;;10.94;100.00
18813;BME280;9534;51.140;6.296;2023-04-12T15:38:19;98863.25;;;10.78;100.00
18813;BME280;9534;51.140;6.296;2023-04-12T15:42:25;98849.25;;;10.74;100.00
18813;BME280;9534;51.140;6.296;2023-04-12T15:46:29;98849.44;;;10.68;100.00
18813;BME280;9534;51.140;6.296;2023-04-12T15:50:32;98843.78;;;10.53;100.00
18813;BME280;9534;51.140;6.296;2023-04-12T15:54:35;98844.69;;;10.58;100.00
18813;BME280;9534;51.140;6.296;2023-04-12T15:58:46;98848.59;;;11.36;100.00
18813;BME280;9534;51.140;6.296;2023-04-12T16:02:49;98838.38;;;13.29;100.00
18813;BME280;9534;51.140;6.296;2023-04-12T16:06:55;98848.34;;;13.59;100.00
18813;BME280;9534;51.140;6.296;2023-04-12T16:11:03;98825.25;;;13.51;100.00
18813;BME280;9534;51.140;6.296;2023-04-12T16:15:09;98840.81;;;12.54;100.00
18813;BME280;9534;51.140;6.296;2023-04-12T16:19:13;98842.00;;;12.73;100.00
18813;BME280;9534;51.140;6.296;2023-04-12T16:23:17;98835.03;;;13.12;100.00
18813;BME280;9534;51.140;6.296;2023-04-12T16:27:20;98847.19;;;13.31;100.00
18813;BME280;9534;51.140;6.296;2023-04-12T16:31:25;98839.28;;;13.79;100.00
18813;BME280;9534;51.140;6.296;2023-04-12T16:35:28;98841.09;;;13.14;100.00
18813;BME280;9534;51.140;6.296;2023-04-12T16:39:32;98843.66;;;12.74;100.00
18813;BME280;9534;51.140;6.296;2023-04-12T16:43:35;98845.97;;;13.02;100.00
18813;BME280;9534;51.140;6.296;2023-04-12T16:47:40;98860.97;;;13.46;100.00
18813;BME280;9534;51.140;6.296;2023-04-12T16:51:43;98872.38;;;13.08;100.00
18813;BME280;9534;51.140;6.296;2023-04-12T16:55:46;98858.97;;;13.21;100.00
18813;BME280;9534;51.140;6.296;2023-04-12T16:59:50;98846.00;;;13.07;100.00
18813;BME280;9534;51.140;6.296;2023-04-12T17:03:54;98838.47;;;12.82;100.00
18813;BME280;9534;51.140;6.296;2023-04-12T17:07:58;98828.56;;;13.62;100.00
18813;BME280;9534;51.140;6.296;2023-04-12T17:12:01;98831.78;;;13.25;100.00
18813;BME280;9534;51.140;6.296;2023-04-12T17:16:06;98831.81;;;13.35;100.00
18813;BME280;9534;51.140;6.296;2023-04-12T17:20:11;98840.09;;;12.27;100.00
18813;BME280;9534;51.140;6.296;2023-04-12T17:24:14;98831.88;;;11.33;100.00
18813;BME280;9534;51.140;6.296;2023-04-12T17:28:18;98833.16;;;10.78;100.00
18813;BME280;9534;51.140;6.296;2023-04-12T17:32:23;98828.66;;;10.45;100.00
18813;BME280;9534;51.140;6.296;2023-04-12T17:36:28;98825.69;;;10.30;100.00
18813;BME280;9534;51.140;6.296;2023-04-12T17:40:33;98829.63;;;10.18;100.00
18813;BME280;9534;51.140;6.296;2023-04-12T17:44:36;98821.19;;;10.03;100.00
18813;BME280;9534;51.140;6.296;2023-04-12T17:48:39;98821.41;;;10.01;100.00
18813;BME280;9534;51.140;6.296;2023-04-12T17:52:43;98819.78;;;10.17;100.00
18813;BME280;9534;51.140;6.296;2023-04-12T17:56:47;98829.78;;;9.95;100.00
18813;BME280;9534;51.140;6.296;2023-04-12T18:00:50;98844.94;;;9.86;100.00
18813;BME280;9534;51.140;6.296;2023-04-12T18:04:53;98844.94;;;9.86;100.00
18813;BME280;9534;51.140;6.296;2023-04-12T18:08:58;98830.47;;;9.85;100.00
18813;BME280;9534;51.140;6.296;2023-04-12T18:13:02;98837.00;;;9.84;100.00
18813;BME280;9534;51.140;6.296;2023-04-12T18:17:05;98846.28;;;9.83;100.00
18813;BME280;9534;51.140;6.296;2023-04-12T18:21:08;98835.69;;;9.71;100.00
18813;BME280;9534;51.140;6.296;2023-04-12T18:25:13;98841.28;;;9.64;100.00
18813;BME280;9534;51.140;6.296;2023-04-12T18:29:17;98838.31;;;9.49;100.00
18813;BME280;9534;51.140;6.296;2023-04-12T18:33:21;98848.59;;;9.42;100.00
18813;BME280;9534;51.140;6.296;2023-04-12T18:37:26;98850.25;;;9.43;100.00
18813;BME280;9534;51.140;6.296;2023-04-12T18:41:30;98863.78;;;9.38;100.00
18813;BME280;9534;51.140;6.296;2023-04-12T18:45:37;98863.78;;;9.38;100.00
18813;BME280;9534;51.140;6.296;2023-04-12T18:49:40;98850.34;;;9.20;100.00
18813;BME280;9534;51.140;6.296;2023-04-12T18:53:43;98867.34;;;9.11;100.00
18813;BME280;9534;51.140;6.296;2023-04-12T18:57:48;98873.59;;;8.95;100.00
18813;BME280;9534;51.140;6.296;2023-04-12T19:01:52;98877.09;;;8.67;100.00
18813;BME280;9534;51.140;6.296;2023-04-12T19:05:56;98876.78;;;8.41;100.00
18813;BME280;9534;51.140;6.296;2023-04-12T19:09:59;98872.50;;;8.22;100.00
18813;BME280;9534;51.140;6.296;2023-04-12T19:14:04;98877.72;;;8.01;100.00
18813;BME280;9534;51.140;6.296;2023-04-12T19:18:08;98889.09;;;7.86;100.00
18813;BME280;9534;51.140;6.296;2023-04-12T19:22:11;98889.44;;;7.78;100.00
18813;BME280;9534;51.140;6.296;2023-04-12T19:26:14;98885.66;;;7.79;100.00
18813;BME280;9534;51.140;6.296;2023-04-12T19:30:19;98925.66;;;7.79;100.00
18813;BME280;9534;51.140;6.296;2023-04-12T19:34:22;98959.06;;;7.86;100.00
18813;BME280;9534;51.140;6.296;2023-04-12T19:38:26;98979.72;;;6.87;100.00
18813;BME280;9534;51.140;6.296;2023-04-12T19:42:29;98981.34;;;6.52;100.00
18813;BME280;9534;51.140;6.296;2023-04-12T19:46:34;98951.91;;;6.49;100.00
18813;BME280;9534;51.140;6.296;2023-04-12T19:50:40;98951.38;;;6.41;100.00
18813;BME280;9534;51.140;6.296;2023-04-12T19:54:43;98975.06;;;6.34;100.00
18813;BME280;9534;51.140;6.296;2023-04-12T19:58:47;98969.94;;;6.19;100.00
18813;BME280;9534;51.140;6.296;2023-04-12T20:02:52;98960.50;;;6.04;100.00
18813;BME280;9534;51.140;6.296;2023-04-12T20:06:56;98962.78;;;6.07;100.00
18813;BME280;9534;51.140;6.296;2023-04-12T20:10:59;98966.59;;;6.00;100.00
18813;BME280;9534;51.140;6.296;2023-04-12T20:15:04;98969.34;;;5.93;100.00
18813;BME280;9534;51.140;6.296;2023-04-12T20:19:08;98959.59;;;5.86;100.00
18813;BME280;9534;51.140;6.296;2023-04-12T20:23:12;98974.81;;;5.87;100.00
18813;BME280;9534;51.140;6.296;2023-04-12T20:27:15;98967.72;;;5.86;100.00
18813;BME280;9534;51.140;6.296;2023-04-12T20:31:19;98978.50;;;5.99;100.00
18813;BME280;9534;51.140;6.296;2023-04-12T20:35:23;98981.22;;;5.99;100.00
18813;BME280;9534;51.140;6.296;2023-04-12T20:39:26;98965.38;;;5.96;100.00
18813;BME280;9534;51.140;6.296;2023-04-12T20:43:31;98964.97;;;5.92;100.00
18813;BME280;9534;51.140;6.296;2023-04-12T20:47:35;98952.31;;;5.80;100.00
18813;BME280;9534;51.140;6.296;2023-04-12T20:51:40;98963.19;;;5.80;100.00
18813;BME280;9534;51.140;6.296;2023-04-12T20:55:47;98963.00;;;5.75;100.00
18813;BME280;9534;51.140;6.296;2023-04-12T20:59:50;98970.91;;;5.76;100.00
18813;BME280;9534;51.140;6.296;2023-04-12T21:03:53;98981.94;;;5.81;100.00
18813;BME280;9534;51.140;6.296;2023-04-12T21:08:00;98951.47;;;5.79;100.00
18813;BME280;9534;51.140;6.296;2023-04-12T21:12:04;98944.00;;;5.75;100.00
18813;BME280;9534;51.140;6.296;2023-04-12T21:16:09;98947.50;;;5.82;100.00
18813;BME280;9534;51.140;6.296;2023-04-12T21:20:17;98932.13;;;6.00;100.00
18813;BME280;9534;51.140;6.296;2023-04-12T21:24:21;98922.56;;;6.15;100.00
18813;BME280;9534;51.140;6.296;2023-04-12T21:28:24;98894.22;;;6.29;100.00
18813;BME280;9534;51.140;6.296;2023-04-12T21:32:30;98886.03;;;6.36;100.00
18813;BME280;9534;51.140;6.296;2023-04-12T21:36:34;98871.59;;;6.35;100.00
18813;BME280;9534;51.140;6.296;2023-04-12T21:40:39;98854.84;;;6.20;100.00
18813;BME280;9534;51.140;6.296;2023-04-12T21:44:42;98849.19;;;6.22;100.00
18813;BME280;9534;51.140;6.296;2023-04-12T21:48:45;98836.69;;;6.21;100.00
18813;BME280;9534;51.140;6.296;2023-04-12T21:52:48;98828.91;;;6.24;100.00